Home > Products > Valid Products > MTR

000
SAUS44 KLIX 282217
MTRBVE
SPECI KBVE 282216Z AUTO 24014G21KT 10SM FEW007 31/26 A3001 RMK AO2
T03110261





000
SAUS44 KLIX 282152
MTRBVE
METAR KBVE 282151Z AUTO 24015G20KT 10SM CLR 31/26 A3001 RMK AO2
SLP162 T03110261





000
SAUS44 KLIX 282052
MTRBVE
METAR KBVE 282051Z AUTO 24014KT 10SM CLR 31/26 A3003 RMK AO2 SLP169
T03110261 58016





000
SAUS44 KLIX 281952
MTRBVE
METAR KBVE 281951Z AUTO 25011KT 10SM CLR 32/24 A3005 RMK AO2 SLP176
T03170244





000
SAUS44 KLIX 281852
MTRBVE
METAR KBVE 281851Z AUTO 25013KT 10SM CLR 32/24 A3007 RMK AO2 SLP182
T03170244





000
SAUS44 KLIX 281752
MTRBVE
METAR KBVE 281751Z AUTO 25013KT 8SM FEW029 31/25 A3008 RMK AO2
SLP184 T03110250 10317 20278 58009





000
SAUS44 KLIX 281652
MTRBVE
METAR KBVE 281651Z AUTO 28010KT 10SM CLR 31/24 A3009 RMK AO2 SLP189
T03110244





000
SAUS44 KLIX 281553
MTRBVE
METAR KBVE 281551Z AUTO 28012KT 10SM FEW003 SCT027 31/24 A3011 RMK
AO2 SLP194 T03060244





000
SAUS44 KLIX 281503
MTRBVE
SPECI KBVE 281502Z AUTO 29012G18KT 10SM FEW002 31/24 A3010 RMK AO2
T03060244





000
SAUS44 KLIX 281453
MTRBVE
METAR KBVE 281451Z AUTO 30012G18KT 10SM FEW022 30/24 A3010 RMK AO2
SLP193 T03000244 50006





000
SAUS44 KLIX 281439
MTRBVE
SPECI KBVE 281438Z AUTO 28012KT 10SM FEW004 SCT021 30/24 A3011 RMK
AO2 T03000244





000
SAUS44 KLIX 281421
MTRBVE
SPECI KBVE 281420Z AUTO 28010KT 10SM FEW005 BKN021 29/25 A3011 RMK
AO2 T02940250





000
SAUS44 KLIX 281352
MTRBVE
METAR KBVE 281351Z AUTO 30007KT 10SM CLR 29/26 A3011 RMK AO2 SLP196
T02940256





000
SAUS44 KLIX 281252
MTRBVE
METAR KBVE 281251Z AUTO 32009KT 10SM CLR 28/26 A3010 RMK AO2 SLP192
T02830261





000
SAUS44 KLIX 281152
MTRBVE
METAR KBVE 281151Z AUTO 29005KT 10SM FEW020 28/26 A3008 RMK AO2
SLP187 70025 T02780256 10289 20278 53012





000
SAUS44 KLIX 281052
MTRBVE
METAR KBVE 281051Z AUTO 28007KT 10SM SCT022 28/25 A3006 RMK AO2
SLP179 T02830250





000
SAUS44 KLIX 281050
MTRBVE
SPECI KBVE 281049Z AUTO 28007KT 10SM SCT022 28/25 A3006 RMK AO2





000
SAUS44 KLIX 281043
MTRBVE
SPECI KBVE 281042Z AUTO 27006KT 10SM SCT022 BKN028 28/25 A3006 RMK
AO2 T02830250





000
SAUS44 KLIX 280952
MTRBVE
METAR KBVE 280951Z AUTO 25008KT 10SM FEW020 28/25 A3005 RMK AO2
SLP175 T02830250





000
SAUS44 KLIX 280852
MTRBVE
METAR KBVE 280851Z AUTO 26009KT 10SM FEW020 28/25 A3004 RMK AO2
SLP170 T02830250 56010





000
SAUS44 KLIX 280752
MTRBVE
METAR KBVE 280751Z AUTO 26006KT 10SM SCT023 28/25 A3004 RMK AO2
SLP172 T02830250





000
SAUS44 KLIX 280735
MTRBVE
SPECI KBVE 280734Z AUTO 27007KT 10SM BKN024 BKN065 28/25 A3004 RMK
AO2 T02830250





000
SAUS44 KLIX 280652
MTRBVE
METAR KBVE 280651Z AUTO 27008KT 10SM FEW023 28/25 A3006 RMK AO2
SLP177 T02830250





000
SAUS44 KLIX 280552
MTRBVE
METAR KBVE 280551Z AUTO 26008KT 10SM CLR 28/24 A3007 RMK AO2 SLP181
T02830244 10294 20283 403110256 58003





000
SAUS44 KLIX 280452
MTRBVE
METAR KBVE 280451Z AUTO 25008KT 10SM FEW022 29/25 A3008 RMK AO2
SLP187 T02890250





000
SAUS44 KLIX 280352
MTRBVE
METAR KBVE 280351Z AUTO 25009KT 10SM CLR 29/24 A3008 RMK AO2 SLP185
T02890244





000
SAUS44 KLIX 280252
MTRBVE
METAR KBVE 280251Z AUTO 25011KT 10SM FEW085 29/25 A3007 RMK AO2
SLP184 T02890250 53007





000
SAUS44 KLIX 280152
MTRBVE
METAR KBVE 280151Z AUTO 24010KT 10SM FEW065 29/25 A3005 RMK AO2
SLP174 T02940250





000
SAUS44 KLIX 280052
MTRBVE
METAR KBVE 280051Z AUTO 24009KT 10SM FEW055 29/26 A3005 RMK AO2
SLP177 T02940256





000
SAUS44 KLIX 272352
MTRBVE
METAR KBVE 272351Z AUTO 24010KT 10SM CLR 29/25 A3005 RMK AO2 SLP176
T02940250 10311 20294 55006





000
SAUS44 KLIX 272252
MTRBVE
METAR KBVE 272251Z AUTO 23012KT 10SM CLR 31/24 A3005 RMK AO2 SLP174
T03060244





000
SAUS44 KLIX 272152
MTRBVE
METAR KBVE 272151Z AUTO 24009KT 10SM CLR 31/24 A3006 RMK AO2 SLP179
T03110244





000
SAUS44 KLIX 272052
MTRBVE
METAR KBVE 272051Z AUTO 22009KT 10SM CLR 31/25 A3007 RMK AO2 SLP182
T03110250 56013





000
SAUS44 KLIX 271952
MTRBVE
METAR KBVE 271951Z AUTO 22010KT 10SM FEW002 31/25 A3008 RMK AO2
SLP185 T03110250





000
SAUS44 KLIX 271852
MTRBVE
METAR KBVE 271851Z AUTO 24010KT 10SM CLR 31/24 A3010 RMK AO2 SLP192
T03110244





000
SAUS44 KLIX 271752
MTRBVE
METAR KBVE 271751Z AUTO VRB05KT 10SM FEW020 SCT026 BKN045 30/24
A3011 RMK AO2 SLP195 60025 T03000244 10306 20256 58005





000
SAUS44 KLIX 271742
MTRBVE
SPECI KBVE 271741Z AUTO 00000KT 10SM FEW002 SCT025 SCT035 31/24
A3011 RMK AO2 T03060244





000
SAUS44 KLIX 271652
MTRBVE
METAR KBVE 271651Z AUTO 24009KT 10SM FEW031 31/24 A3012 RMK AO2
SLP200 T03060239





000
SAUS44 KLIX 271552
MTRBVE
METAR KBVE 271551Z AUTO 23009KT 10SM FEW002 BKN060 29/26 A3013 RMK
AO2 RAB20E29 SLP202 P0000 T02940256





000
SAUS44 KLIX 271525
MTRBVE
SPECI KBVE 271523Z AUTO 27008KT 10SM -RA FEW002 SCT022 BKN065 29/24
A3013 RMK AO2 RAB20 P0000 T02890244





000
SAUS44 KLIX 271509
MTRBVE
SPECI KBVE 271508Z AUTO 25011KT 10SM SCT002 BKN023 BKN041 28/25
A3012 RMK AO2 T02830250





000
SAUS44 KLIX 271452
MTRBVE
METAR KBVE 271451Z AUTO 27008KT 10SM FEW002 FEW025 SCT043 29/25
A3012 RMK AO2 RAE08 SLP200 P0024 60025 T02940250 51015





000
SAUS44 KLIX 271441
MTRBVE
SPECI KBVE 271440Z AUTO 26007KT 10SM FEW002 29/24 A3012 RMK AO2
RAE08 P0024 T02940244





000
SAUS44 KLIX 271411
MTRBVE
SPECI KBVE 271410Z AUTO 25004KT 10SM FEW019 SCT032 BKN090 27/24
A3012 RMK AO2 RAE08 P0024 T02670244





000
SAUS44 KLIX 271404
MTRBVE
SPECI KBVE 271403Z AUTO 19004KT 2 1/2SM -RA BR SCT019 BKN065 OVC100
26/24 A3012 RMK AO2 P0024 T02610239





000
SAUS44 KLIX 271355
MTRBVE
SPECI KBVE 271354Z AUTO 20011KT 3/4SM +RA SCT015 SCT023 BKN033 26/23
A3012 RMK AO2 P0013 T02560228





000
SAUS44 KLIX 271352
MTRBVE
METAR KBVE 271351Z AUTO 22012G20KT 1 1/2SM RA FEW011 SCT023 BKN029
26/23 A3012 RMK AO2 RAB48 SLP199 P0001 T02610228





000
SAUS44 KLIX 271329
MTRBVE
SPECI KBVE 271328Z AUTO 26006KT 7SM FEW004 29/25 A3011 RMK AO2
T02890250





000
SAUS44 KLIX 271252
MTRBVE
METAR KBVE 271251Z AUTO VRB03KT 10SM CLR 28/26 A3010 RMK AO2 SLP193
T02830261





000
SAUS44 KLIX 271152
MTRBVE
METAR KBVE 271151Z AUTO 00000KT 9SM CLR 27/25 A3008 RMK AO2 RAE29
SLP185 P0034 60035 70035 T02670250 10278 20261 53005





000
SAUS44 KLIX 271117
MTRBVE
SPECI KBVE 271115Z AUTO 3SM -RA FEW019 SCT036 OVC045 27/24 A3008 RMK
AO2 P0034 T02720244





000
SAUS44 KLIX 271101
MTRBVE
SPECI KBVE 271100Z AUTO 23011G16KT 1 1/2SM +RA BR FEW018 BKN031
OVC060 26/24 A3008 RMK AO2 VIS 3/4V5 P0005 T02610239





000
SAUS44 KLIX 271052
MTRBVE
METAR KBVE 271051Z AUTO 25005KT 6SM -RA SCT032 BKN046 BKN060 27/24
A3008 RMK AO2 RAB32 SLP185 P0001 T02670239





000
SAUS44 KLIX 270952
MTRBVE
METAR KBVE 270951Z AUTO 28003KT 10SM FEW025 27/25 A3006 RMK AO2
SLP179 T02670250





000
SAUS44 KLIX 270852
MTRBVE
METAR KBVE 270851Z AUTO 00000KT 10SM FEW022 SCT035 27/25 A3006 RMK
AO2 SLP180 T02720250 55000





000
SAUS44 KLIX 270808
MTRBVE
SPECI KBVE 270807Z AUTO 29005KT 10SM SCT023 BKN029 BKN035 27/25
A3006 RMK AO2 T02720250





000
SAUS44 KLIX 270752
MTRBVE
METAR KBVE 270751Z AUTO 29004KT 10SM SCT022 27/25 A3006 RMK AO2
SLP178 T02720250





000
SAUS44 KLIX 270652
MTRBVE
METAR KBVE 270651Z AUTO 29005KT 10SM FEW024 28/24 A3006 RMK AO2
SLP178 T02780244





000
SAUS44 KLIX 270552
MTRBVE
METAR KBVE 270551Z AUTO 27005KT 10SM CLR 28/24 A3006 RMK AO2 SLP180
T02830244 10300 20278 403110267 50000





000
SAUS44 KLIX 270452
MTRBVE
METAR KBVE 270451Z AUTO 27005KT 10SM CLR 28/24 A3008 RMK AO2 SLP184
T02830239





000
SAUS44 KLIX 270352
MTRBVE
METAR KBVE 270351Z AUTO 28005KT 10SM CLR 28/24 A3008 RMK AO2 SLP186
T02830239





000
SAUS44 KLIX 270252
MTRBVE
METAR KBVE 270251Z AUTO 25009KT 10SM CLR 29/23 A3006 RMK AO2 SLP180
T02890233 53011





000
SAUS44 KLIX 270152
MTRBVE
METAR KBVE 270151Z AUTO 24009KT 10SM CLR 29/24 A3005 RMK AO2 SLP175
T02890244





000
SAUS44 KLIX 270052
MTRBVE
METAR KBVE 270051Z AUTO 23010KT 10SM FEW024 29/24 A3004 RMK AO2
SLP172 T02940244





000
SAUS44 KLIX 262352
MTRBVE
METAR KBVE 262351Z AUTO 22011KT 10SM FEW026 30/24 A3003 RMK AO2
SLP169 T03000244 10311 20300 56012





000
SAUS44 KLIX 262252
MTRBVE
METAR KBVE 262251Z AUTO 24009KT 10SM CLR 31/24 A3004 RMK AO2 SLP172
T03060244





000
SAUS44 KLIX 262152
MTRBVE
METAR KBVE 262151Z AUTO 24009KT 10SM FEW024 31/25 A3005 RMK AO2
SLP175 T03060250





000
SAUS44 KLIX 262053 COR
MTRBVE
METAR KBVE 262051Z AUTO 23011KT 10SM CLR 31/24 A3007 RMK AO2 SLP181
T03060244 56010





000
SAUS44 KLIX 262021
MTRBVE
SPECI KBVE 262020Z AUTO 23010KT 10SM FEW002 FEW024 31/25 A3007 RMK
AO2 T03060250





000
SAUS44 KLIX 261952
MTRBVE
METAR KBVE 261951Z AUTO 23009KT 10SM CLR 31/24 A3007 RMK AO2 SLP181
T03110244





000
SAUS44 KLIX 261852
MTRBVE
METAR KBVE 261851Z AUTO 22010KT 10SM CLR 31/24 A3009 RMK AO2 SLP188
T03060244





000
SAUS44 KLIX 261752
MTRBVE
METAR KBVE 261751Z AUTO 23012KT 10SM CLR 31/23 A3009 RMK AO2 SLP190
T03060228 10306 20272 58006





000
SAUS44 KLIX 261652
MTRBVE
METAR KBVE 261651Z AUTO 25010KT 10SM CLR 30/23 A3011 RMK AO2 SLP196
T03000228





000
SAUS44 KLIX 261552
MTRBVE
METAR KBVE 261551Z AUTO 24008KT 10SM SCT028 BKN038 29/24 A3011 RMK
AO2 SLP197 T02940244





000
SAUS44 KLIX 261550
MTRBVE
SPECI KBVE 261549Z AUTO 23009KT 10SM SCT028 BKN036 BKN049 29/24
A3011 RMK AO2





000
SAUS44 KLIX 261536
MTRBVE
SPECI KBVE 261535Z AUTO 25006KT 10SM BKN028 BKN041 29/24 A3011 RMK
AO2 T02940244





000
SAUS44 KLIX 261452
MTRBVE
METAR KBVE 261451Z AUTO 28005KT 10SM FEW020 SCT026 29/24 A3010 RMK
AO2 SLP194 T02940244 51015





000
SAUS44 KLIX 261435
MTRBVE
SPECI KBVE 261434Z AUTO 26005KT 10SM SCT019 BKN026 29/24 A3011 RMK
AO2 T02890244





000
SAUS44 KLIX 261404
MTRBVE
SPECI KBVE 261403Z AUTO 31004KT 10SM SCT021 29/26 A3010 RMK AO2
T02890256





000
SAUS44 KLIX 261352
MTRBVE
METAR KBVE 261351Z AUTO 34006KT 10SM BKN021 29/25 A3010 RMK AO2
SLP191 T02890250





000
SAUS44 KLIX 261252
MTRBVE
METAR KBVE 261251Z AUTO 28007KT 10SM CLR 29/25 A3008 RMK AO2 SLP185
T02890250





000
SAUS44 KLIX 261208
MTRBVE
SPECI KBVE 261207Z AUTO 28003KT 9SM SCT002 27/25 A3006 RMK AO2
T02720250





000
SAUS44 KLIX 261152
MTRBVE
METAR KBVE 261151Z AUTO 30004KT 10SM FEW022 27/24 A3006 RMK AO2
SLP179 T02670244 10283 20267 53016





000
SAUS44 KLIX 261113
MTRBVE
SPECI KBVE 261112Z AUTO 27005KT 10SM SCT022 27/25 A3005 RMK AO2
T02720250





000
SAUS44 KLIX 261107
MTRBVE
SPECI KBVE 261105Z AUTO 28006KT 10SM BKN022 28/25 A3004 RMK AO2
T02780250





000
SAUS44 KLIX 261052
MTRBVE
METAR KBVE 261051Z AUTO 26006KT 10SM FEW020 FEW026 28/24 A3004 RMK
AO2 SLP171 T02780244





000
SAUS44 KLIX 260952
MTRBVE
METAR KBVE 260951Z AUTO 27006KT 10SM CLR 28/24 A3003 RMK AO2 SLP169
T02780244





000
SAUS44 KLIX 260852
MTRBVE
METAR KBVE 260851Z AUTO 25007KT 10SM FEW023 28/24 A3002 RMK AO2
SLP164 T02780244 56011





000
SAUS44 KLIX 260752
MTRBVE
METAR KBVE 260751Z AUTO 24008KT 10SM CLR 28/24 A3002 RMK AO2 SLP165
T02830244





000
SAUS44 KLIX 260652
MTRBVE
METAR KBVE 260651Z AUTO 24007KT 10SM FEW022 28/24 A3002 RMK AO2
SLP165 T02830244





000
SAUS44 KLIX 260552
MTRBVE
METAR KBVE 260551Z AUTO 25008KT 10SM FEW023 28/24 A3005 RMK AO2
SLP174 T02830239 10294 20283 403060267 53000





000
SAUS44 KLIX 260452
MTRBVE
METAR KBVE 260451Z AUTO 24008KT 10SM CLR 28/25 A3005 RMK AO2 SLP175
T02830250





000
SAUS44 KLIX 260352
MTRBVE
METAR KBVE 260351Z AUTO 24008KT 10SM CLR 28/24 A3004 RMK AO2 SLP173
T02830244





000
SAUS44 KLIX 260252
MTRBVE
METAR KBVE 260251Z AUTO 24008KT 10SM FEW027 29/24 A3005 RMK AO2
SLP174 T02890244 53015





000
SAUS44 KLIX 260152
MTRBVE
METAR KBVE 260151Z AUTO 24008KT 10SM CLR 28/24 A3003 RMK AO2 SLP168
T02830244





000
SAUS44 KLIX 260052
MTRBVE
METAR KBVE 260051Z AUTO 24008KT 10SM CLR 29/24 A3001 RMK AO2 SLP161
T02890244





000
SAUS44 KLIX 252352
MTRBVE
METAR KBVE 252351Z AUTO 24010KT 10SM CLR 29/24 A3000 RMK AO2 SLP159
T02940244 10306 20289 56002





000
SAUS44 KLIX 252252
MTRBVE
METAR KBVE 252251Z AUTO 24011KT 10SM CLR 29/24 A3001 RMK AO2 SLP160
T02940239





    US Dept of Commerce
    National Oceanic and Atmospheric Administration
    National Weather Service
    1325 East West Highway
    Silver Spring, MD 20910
    Page Author: NWS Internet Services Team
Disclaimer
Information Quality
Credits
Glossary
Privacy Policy
Freedom of Information Act (FOIA)
About Us
Career Opportunities